sensor_id;sensor_type;location;lat;lon;timestamp;P1;durP1;ratioP1;P2;durP2;ratioP2
49392;SDS011;35268;42.642;23.308;2023-02-26T00:02:15;14.00;;;4.47;;
49392;SDS011;35268;42.642;23.308;2023-02-26T00:04:41;16.48;;;4.20;;
49392;SDS011;35268;42.642;23.308;2023-02-26T00:07:06;16.27;;;5.00;;
49392;SDS011;35268;42.642;23.308;2023-02-26T00:09:32;13.88;;;4.80;;
49392;SDS011;35268;42.642;23.308;2023-02-26T00:11:58;21.88;;;4.57;;
49392;SDS011;35268;42.642;23.308;2023-02-26T00:14:24;14.38;;;4.50;;
49392;SDS011;35268;42.642;23.308;2023-02-26T00:17:36;20.52;;;5.30;;
49392;SDS011;35268;42.642;23.308;2023-02-26T00:19:54;14.15;;;4.63;;
49392;SDS011;35268;42.642;23.308;2023-02-26T00:22:20;19.67;;;4.28;;
49392;SDS011;35268;42.642;23.308;2023-02-26T00:24:45;23.52;;;4.40;;
49392;SDS011;35268;42.642;23.308;2023-02-26T00:27:11;11.50;;;3.95;;
49392;SDS011;35268;42.642;23.308;2023-02-26T00:29:37;19.48;;;4.28;;
49392;SDS011;35268;42.642;23.308;2023-02-26T00:32:03;13.80;;;4.05;;
49392;SDS011;35268;42.642;23.308;2023-02-26T00:34:29;16.95;;;3.78;;
49392;SDS011;35268;42.642;23.308;2023-02-26T00:42:13;16.65;;;3.83;;
49392;SDS011;35268;42.642;23.308;2023-02-26T00:44:39;18.65;;;3.85;;
49392;SDS011;35268;42.642;23.308;2023-02-26T00:47:09;29.60;;;5.50;;
49392;SDS011;35268;42.642;23.308;2023-02-26T00:55:07;11.77;;;3.58;;
49392;SDS011;35268;42.642;23.308;2023-02-26T00:57:33;14.27;;;3.60;;
49392;SDS011;35268;42.642;23.308;2023-02-26T00:59:59;13.55;;;3.83;;
49392;SDS011;35268;42.642;23.308;2023-02-26T01:02:25;16.08;;;3.38;;
49392;SDS011;35268;42.642;23.308;2023-02-26T01:04:50;17.92;;;3.60;;
49392;SDS011;35268;42.642;23.308;2023-02-26T01:07:17;20.42;;;3.42;;
49392;SDS011;35268;42.642;23.308;2023-02-26T01:09:47;13.70;;;4.88;;
49392;SDS011;35268;42.642;23.308;2023-02-26T01:12:13;17.23;;;3.65;;
49392;SDS011;35268;42.642;23.308;2023-02-26T01:14:41;14.43;;;3.67;;
49392;SDS011;35268;42.642;23.308;2023-02-26T01:23:16;14.02;;;4.72;;
49392;SDS011;35268;42.642;23.308;2023-02-26T01:25:26;17.45;;;4.55;;
49392;SDS011;35268;42.642;23.308;2023-02-26T01:28:13;16.00;;;4.13;;
49392;SDS011;35268;42.642;23.308;2023-02-26T01:30:38;19.40;;;4.32;;
49392;SDS011;35268;42.642;23.308;2023-02-26T01:36:18;23.08;;;3.70;;
49392;SDS011;35268;42.642;23.308;2023-02-26T01:46:51;10.57;;;3.53;;
49392;SDS011;35268;42.642;23.308;2023-02-26T01:49:21;17.13;;;3.58;;
49392;SDS011;35268;42.642;23.308;2023-02-26T01:54:18;22.20;;;3.33;;
49392;SDS011;35268;42.642;23.308;2023-02-26T01:56:46;9.20;;;3.50;;
49392;SDS011;35268;42.642;23.308;2023-02-26T01:59:20;14.90;;;3.10;;
49392;SDS011;35268;42.642;23.308;2023-02-26T02:01:48;16.15;;;3.60;;
49392;SDS011;35268;42.642;23.308;2023-02-26T02:04:16;12.75;;;3.25;;
49392;SDS011;35268;42.642;23.308;2023-02-26T02:06:42;19.13;;;3.35;;
49392;SDS011;35268;42.642;23.308;2023-02-26T02:09:09;9.25;;;4.40;;
49392;SDS011;35268;42.642;23.308;2023-02-26T02:11:36;15.63;;;3.60;;
49392;SDS011;35268;42.642;23.308;2023-02-26T02:22:05;9.68;;;3.05;;
49392;SDS011;35268;42.642;23.308;2023-02-26T02:30:09;16.38;;;4.32;;
49392;SDS011;35268;42.642;23.308;2023-02-26T02:33:14;18.88;;;4.03;;
49392;SDS011;35268;42.642;23.308;2023-02-26T02:35:43;12.10;;;3.13;;
49392;SDS011;35268;42.642;23.308;2023-02-26T02:40:55;17.80;;;3.63;;
49392;SDS011;35268;42.642;23.308;2023-02-26T02:43:29;13.68;;;3.17;;
49392;SDS011;35268;42.642;23.308;2023-02-26T02:46:07;27.08;;;3.85;;
49392;SDS011;35268;42.642;23.308;2023-02-26T02:48:40;18.60;;;4.10;;
49392;SDS011;35268;42.642;23.308;2023-02-26T02:51:30;15.40;;;3.47;;
49392;SDS011;35268;42.642;23.308;2023-02-26T03:01:42;20.40;;;3.47;;
49392;SDS011;35268;42.642;23.308;2023-02-26T03:04:10;9.43;;;3.25;;
49392;SDS011;35268;42.642;23.308;2023-02-26T03:06:39;14.68;;;3.03;;
49392;SDS011;35268;42.642;23.308;2023-02-26T03:09:06;12.93;;;3.42;;
49392;SDS011;35268;42.642;23.308;2023-02-26T03:11:32;17.23;;;2.80;;
49392;SDS011;35268;42.642;23.308;2023-02-26T03:13:59;16.42;;;3.30;;
49392;SDS011;35268;42.642;23.308;2023-02-26T03:26:39;13.48;;;3.83;;
49392;SDS011;35268;42.642;23.308;2023-02-26T03:29:15;14.15;;;3.40;;
49392;SDS011;35268;42.642;23.308;2023-02-26T03:34:29;15.38;;;2.90;;
49392;SDS011;35268;42.642;23.308;2023-02-26T03:37:01;30.65;;;3.00;;
49392;SDS011;35268;42.642;23.308;2023-02-26T03:39:38;21.23;;;3.42;;
49392;SDS011;35268;42.642;23.308;2023-02-26T03:42:24;12.68;;;4.07;;
49392;SDS011;35268;42.642;23.308;2023-02-26T03:44:56;7.82;;;2.60;;
49392;SDS011;35268;42.642;23.308;2023-02-26T03:47:27;17.48;;;3.20;;
49392;SDS011;35268;42.642;23.308;2023-02-26T03:49:58;17.25;;;3.17;;
49392;SDS011;35268;42.642;23.308;2023-02-26T03:52:29;10.88;;;3.20;;
49392;SDS011;35268;42.642;23.308;2023-02-26T03:55:03;12.30;;;3.17;;
49392;SDS011;35268;42.642;23.308;2023-02-26T03:57:33;14.68;;;3.28;;
49392;SDS011;35268;42.642;23.308;2023-02-26T03:59:59;17.33;;;3.78;;
49392;SDS011;35268;42.642;23.308;2023-02-26T04:02:26;12.23;;;3.42;;
49392;SDS011;35268;42.642;23.308;2023-02-26T04:05:33;25.20;;;3.08;;
49392;SDS011;35268;42.642;23.308;2023-02-26T04:07:58;15.85;;;3.42;;
49392;SDS011;35268;42.642;23.308;2023-02-26T04:10:27;19.98;;;4.55;;
49392;SDS011;35268;42.642;23.308;2023-02-26T04:13:00;8.63;;;3.03;;
49392;SDS011;35268;42.642;23.308;2023-02-26T04:15:26;12.70;;;2.78;;
49392;SDS011;35268;42.642;23.308;2023-02-26T04:17:52;14.80;;;3.28;;
49392;SDS011;35268;42.642;23.308;2023-02-26T04:20:18;12.45;;;3.25;;
49392;SDS011;35268;42.642;23.308;2023-02-26T04:22:43;12.38;;;2.70;;
49392;SDS011;35268;42.642;23.308;2023-02-26T04:25:09;9.52;;;4.05;;
49392;SDS011;35268;42.642;23.308;2023-02-26T04:27:34;25.88;;;3.85;;
49392;SDS011;35268;42.642;23.308;2023-02-26T04:30:00;21.52;;;2.85;;
49392;SDS011;35268;42.642;23.308;2023-02-26T04:32:25;13.52;;;3.58;;
49392;SDS011;35268;42.642;23.308;2023-02-26T04:34:51;15.00;;;3.00;;
49392;SDS011;35268;42.642;23.308;2023-02-26T04:37:16;16.92;;;3.78;;
49392;SDS011;35268;42.642;23.308;2023-02-26T04:39:42;12.65;;;3.22;;
49392;SDS011;35268;42.642;23.308;2023-02-26T04:42:07;11.52;;;2.72;;
49392;SDS011;35268;42.642;23.308;2023-02-26T04:44:32;20.02;;;3.38;;
49392;SDS011;35268;42.642;23.308;2023-02-26T04:46:58;18.55;;;2.95;;
49392;SDS011;35268;42.642;23.308;2023-02-26T04:49:23;19.70;;;2.90;;
49392;SDS011;35268;42.642;23.308;2023-02-26T04:51:49;18.52;;;3.80;;
49392;SDS011;35268;42.642;23.308;2023-02-26T04:54:15;14.77;;;3.97;;
49392;SDS011;35268;42.642;23.308;2023-02-26T04:56:40;13.23;;;2.95;;
49392;SDS011;35268;42.642;23.308;2023-02-26T04:59:06;13.88;;;3.90;;
49392;SDS011;35268;42.642;23.308;2023-02-26T05:01:32;19.20;;;3.28;;
49392;SDS011;35268;42.642;23.308;2023-02-26T05:03:57;19.45;;;2.97;;
49392;SDS011;35268;42.642;23.308;2023-02-26T05:06:23;10.32;;;3.33;;
49392;SDS011;35268;42.642;23.308;2023-02-26T05:08:48;12.50;;;2.83;;
49392;SDS011;35268;42.642;23.308;2023-02-26T05:11:14;16.08;;;3.13;;
49392;SDS011;35268;42.642;23.308;2023-02-26T05:13:39;11.88;;;2.80;;
49392;SDS011;35268;42.642;23.308;2023-02-26T05:16:05;8.23;;;3.47;;
49392;SDS011;35268;42.642;23.308;2023-02-26T05:18:31;28.15;;;3.50;;
49392;SDS011;35268;42.642;23.308;2023-02-26T05:20:57;27.33;;;6.25;;
49392;SDS011;35268;42.642;23.308;2023-02-26T05:23:23;15.18;;;2.72;;
49392;SDS011;35268;42.642;23.308;2023-02-26T05:25:49;28.20;;;4.13;;
49392;SDS011;35268;42.642;23.308;2023-02-26T05:28:14;14.27;;;2.67;;
49392;SDS011;35268;42.642;23.308;2023-02-26T05:30:40;15.90;;;2.65;;
49392;SDS011;35268;42.642;23.308;2023-02-26T05:33:06;19.35;;;3.53;;
49392;SDS011;35268;42.642;23.308;2023-02-26T05:35:31;21.50;;;4.20;;
49392;SDS011;35268;42.642;23.308;2023-02-26T05:37:57;15.07;;;3.10;;
49392;SDS011;35268;42.642;23.308;2023-02-26T05:40:22;18.20;;;3.50;;
49392;SDS011;35268;42.642;23.308;2023-02-26T05:42:48;17.80;;;3.40;;
49392;SDS011;35268;42.642;23.308;2023-02-26T05:45:13;18.33;;;3.60;;
49392;SDS011;35268;42.642;23.308;2023-02-26T05:47:39;19.80;;;3.20;;
49392;SDS011;35268;42.642;23.308;2023-02-26T05:50:05;31.05;;;3.65;;
49392;SDS011;35268;42.642;23.308;2023-02-26T05:52:31;7.25;;;2.63;;
49392;SDS011;35268;42.642;23.308;2023-02-26T05:54:57;18.25;;;5.30;;
49392;SDS011;35268;42.642;23.308;2023-02-26T05:57:23;24.98;;;3.42;;
49392;SDS011;35268;42.642;23.308;2023-02-26T05:59:48;20.95;;;3.25;;
49392;SDS011;35268;42.642;23.308;2023-02-26T06:02:14;18.35;;;3.00;;
49392;SDS011;35268;42.642;23.308;2023-02-26T06:04:40;10.88;;;2.95;;
49392;SDS011;35268;42.642;23.308;2023-02-26T06:07:05;12.38;;;2.95;;
49392;SDS011;35268;42.642;23.308;2023-02-26T06:09:31;15.60;;;2.97;;
49392;SDS011;35268;42.642;23.308;2023-02-26T06:11:56;14.60;;;3.90;;
49392;SDS011;35268;42.642;23.308;2023-02-26T06:14:22;18.10;;;3.13;;
49392;SDS011;35268;42.642;23.308;2023-02-26T06:16:48;19.38;;;3.25;;
49392;SDS011;35268;42.642;23.308;2023-02-26T06:19:13;15.73;;;2.97;;
49392;SDS011;35268;42.642;23.308;2023-02-26T06:21:38;22.48;;;3.33;;
49392;SDS011;35268;42.642;23.308;2023-02-26T06:24:09;13.40;;;3.90;;
49392;SDS011;35268;42.642;23.308;2023-02-26T06:26:34;11.70;;;3.30;;
49392;SDS011;35268;42.642;23.308;2023-02-26T06:29:00;16.67;;;3.72;;
49392;SDS011;35268;42.642;23.308;2023-02-26T06:31:26;19.05;;;3.53;;
49392;SDS011;35268;42.642;23.308;2023-02-26T06:33:51;8.35;;;2.47;;
49392;SDS011;35268;42.642;23.308;2023-02-26T06:36:17;16.42;;;2.95;;
49392;SDS011;35268;42.642;23.308;2023-02-26T06:38:42;22.33;;;4.43;;
49392;SDS011;35268;42.642;23.308;2023-02-26T06:41:09;30.33;;;3.30;;
49392;SDS011;35268;42.642;23.308;2023-02-26T06:43:37;20.20;;;2.97;;
49392;SDS011;35268;42.642;23.308;2023-02-26T06:46:03;28.75;;;3.67;;
49392;SDS011;35268;42.642;23.308;2023-02-26T06:48:29;18.83;;;3.67;;
49392;SDS011;35268;42.642;23.308;2023-02-26T06:50:54;23.65;;;2.65;;
49392;SDS011;35268;42.642;23.308;2023-02-26T06:53:19;20.88;;;3.60;;
49392;SDS011;35268;42.642;23.308;2023-02-26T06:55:48;17.98;;;3.10;;
49392;SDS011;35268;42.642;23.308;2023-02-26T06:58:16;20.55;;;5.35;;
49392;SDS011;35268;42.642;23.308;2023-02-26T07:00:43;31.65;;;3.92;;
49392;SDS011;35268;42.642;23.308;2023-02-26T07:03:13;26.02;;;2.75;;
49392;SDS011;35268;42.642;23.308;2023-02-26T07:05:40;12.52;;;3.17;;
49392;SDS011;35268;42.642;23.308;2023-02-26T07:08:06;12.77;;;3.60;;
49392;SDS011;35268;42.642;23.308;2023-02-26T07:10:32;22.48;;;3.35;;
49392;SDS011;35268;42.642;23.308;2023-02-26T07:12:59;16.15;;;2.90;;
49392;SDS011;35268;42.642;23.308;2023-02-26T07:15:25;15.07;;;3.33;;
49392;SDS011;35268;42.642;23.308;2023-02-26T07:17:50;19.27;;;3.15;;
49392;SDS011;35268;42.642;23.308;2023-02-26T07:20:16;19.02;;;3.75;;
49392;SDS011;35268;42.642;23.308;2023-02-26T07:22:42;17.42;;;3.08;;
49392;SDS011;35268;42.642;23.308;2023-02-26T07:25:08;17.27;;;3.60;;
49392;SDS011;35268;42.642;23.308;2023-02-26T07:27:34;18.02;;;3.40;;
49392;SDS011;35268;42.642;23.308;2023-02-26T07:30:00;14.63;;;2.55;;
49392;SDS011;35268;42.642;23.308;2023-02-26T07:32:26;13.60;;;2.45;;
49392;SDS011;35268;42.642;23.308;2023-02-26T07:34:52;13.57;;;3.38;;
49392;SDS011;35268;42.642;23.308;2023-02-26T07:37:17;15.93;;;3.25;;
49392;SDS011;35268;42.642;23.308;2023-02-26T07:39:43;20.65;;;3.75;;
49392;SDS011;35268;42.642;23.308;2023-02-26T07:42:08;18.42;;;4.20;;
49392;SDS011;35268;42.642;23.308;2023-02-26T07:44:34;18.83;;;3.08;;
49392;SDS011;35268;42.642;23.308;2023-02-26T07:47:00;12.65;;;4.18;;
49392;SDS011;35268;42.642;23.308;2023-02-26T07:49:25;14.00;;;2.88;;
49392;SDS011;35268;42.642;23.308;2023-02-26T07:51:51;18.65;;;4.55;;
49392;SDS011;35268;42.642;23.308;2023-02-26T07:54:16;19.17;;;3.50;;
49392;SDS011;35268;42.642;23.308;2023-02-26T07:56:42;21.50;;;3.58;;
49392;SDS011;35268;42.642;23.308;2023-02-26T07:59:08;11.82;;;3.17;;
49392;SDS011;35268;42.642;23.308;2023-02-26T08:01:34;22.35;;;4.22;;
49392;SDS011;35268;42.642;23.308;2023-02-26T08:04:00;20.02;;;4.35;;
49392;SDS011;35268;42.642;23.308;2023-02-26T08:06:26;21.02;;;3.60;;
49392;SDS011;35268;42.642;23.308;2023-02-26T08:08:51;47.05;;;4.78;;
49392;SDS011;35268;42.642;23.308;2023-02-26T08:11:17;12.35;;;2.67;;
49392;SDS011;35268;42.642;23.308;2023-02-26T08:13:42;17.17;;;3.95;;
49392;SDS011;35268;42.642;23.308;2023-02-26T08:16:08;18.17;;;3.60;;
49392;SDS011;35268;42.642;23.308;2023-02-26T08:18:33;10.35;;;3.63;;
49392;SDS011;35268;42.642;23.308;2023-02-26T08:20:58;23.98;;;6.10;;
49392;SDS011;35268;42.642;23.308;2023-02-26T08:23:24;12.30;;;3.03;;
49392;SDS011;35268;42.642;23.308;2023-02-26T08:25:50;20.65;;;3.83;;
49392;SDS011;35268;42.642;23.308;2023-02-26T08:28:27;28.95;;;3.42;;
49392;SDS011;35268;42.642;23.308;2023-02-26T08:30:52;16.85;;;2.60;;
49392;SDS011;35268;42.642;23.308;2023-02-26T08:33:18;24.15;;;3.33;;
49392;SDS011;35268;42.642;23.308;2023-02-26T08:35:43;20.50;;;3.85;;
49392;SDS011;35268;42.642;23.308;2023-02-26T08:38:09;16.52;;;3.92;;
49392;SDS011;35268;42.642;23.308;2023-02-26T08:40:34;14.90;;;2.78;;
49392;SDS011;35268;42.642;23.308;2023-02-26T08:43:00;23.25;;;4.10;;
49392;SDS011;35268;42.642;23.308;2023-02-26T08:45:25;25.02;;;3.25;;
49392;SDS011;35268;42.642;23.308;2023-02-26T08:47:53;17.25;;;4.05;;
49392;SDS011;35268;42.642;23.308;2023-02-26T08:50:19;21.63;;;3.05;;
49392;SDS011;35268;42.642;23.308;2023-02-26T08:52:45;9.95;;;3.88;;
49392;SDS011;35268;42.642;23.308;2023-02-26T08:55:10;26.67;;;3.10;;
49392;SDS011;35268;42.642;23.308;2023-02-26T08:57:36;33.03;;;4.88;;
49392;SDS011;35268;42.642;23.308;2023-02-26T09:00:04;26.45;;;3.75;;
49392;SDS011;35268;42.642;23.308;2023-02-26T09:02:34;13.60;;;3.03;;
49392;SDS011;35268;42.642;23.308;2023-02-26T09:05:00;18.70;;;4.10;;
49392;SDS011;35268;42.642;23.308;2023-02-26T09:07:25;23.55;;;3.33;;
49392;SDS011;35268;42.642;23.308;2023-02-26T09:09:51;18.98;;;2.55;;
49392;SDS011;35268;42.642;23.308;2023-02-26T09:12:16;17.58;;;3.03;;
49392;SDS011;35268;42.642;23.308;2023-02-26T09:14:42;18.15;;;2.92;;
49392;SDS011;35268;42.642;23.308;2023-02-26T09:17:07;18.40;;;3.00;;
49392;SDS011;35268;42.642;23.308;2023-02-26T09:19:32;21.27;;;2.83;;
49392;SDS011;35268;42.642;23.308;2023-02-26T09:21:58;21.60;;;3.67;;
49392;SDS011;35268;42.642;23.308;2023-02-26T09:24:23;14.98;;;3.08;;
49392;SDS011;35268;42.642;23.308;2023-02-26T09:26:49;17.85;;;4.45;;
49392;SDS011;35268;42.642;23.308;2023-02-26T09:29:14;19.15;;;4.28;;
49392;SDS011;35268;42.642;23.308;2023-02-26T09:31:40;25.70;;;3.97;;
49392;SDS011;35268;42.642;23.308;2023-02-26T09:34:05;15.10;;;3.92;;
49392;SDS011;35268;42.642;23.308;2023-02-26T09:36:30;26.33;;;4.68;;
49392;SDS011;35268;42.642;23.308;2023-02-26T09:38:56;23.98;;;4.55;;
49392;SDS011;35268;42.642;23.308;2023-02-26T09:41:35;17.15;;;3.97;;
49392;SDS011;35268;42.642;23.308;2023-02-26T09:44:11;21.13;;;3.80;;
49392;SDS011;35268;42.642;23.308;2023-02-26T09:51:59;22.38;;;5.28;;
49392;SDS011;35268;42.642;23.308;2023-02-26T09:54:51;20.10;;;3.83;;
49392;SDS011;35268;42.642;23.308;2023-02-26T09:59:54;14.70;;;3.75;;
49392;SDS011;35268;42.642;23.308;2023-02-26T10:05:40;16.48;;;4.28;;
49392;SDS011;35268;42.642;23.308;2023-02-26T10:08:15;24.77;;;4.20;;
49392;SDS011;35268;42.642;23.308;2023-02-26T10:15:59;24.15;;;4.70;;
49392;SDS011;35268;42.642;23.308;2023-02-26T10:18:31;16.30;;;2.67;;
49392;SDS011;35268;42.642;23.308;2023-02-26T10:21:09;13.55;;;3.45;;
49392;SDS011;35268;42.642;23.308;2023-02-26T10:23:42;8.77;;;2.20;;
49392;SDS011;35268;42.642;23.308;2023-02-26T10:26:32;24.70;;;3.13;;
49392;SDS011;35268;42.642;23.308;2023-02-26T10:34:56;21.60;;;3.22;;
49392;SDS011;35268;42.642;23.308;2023-02-26T10:43:18;14.05;;;3.38;;
49392;SDS011;35268;42.642;23.308;2023-02-26T10:51:49;14.55;;;3.22;;
49392;SDS011;35268;42.642;23.308;2023-02-26T10:54:36;16.17;;;3.33;;
49392;SDS011;35268;42.642;23.308;2023-02-26T10:57:10;13.73;;;3.58;;
49392;SDS011;35268;42.642;23.308;2023-02-26T10:59:44;22.08;;;4.28;;
49392;SDS011;35268;42.642;23.308;2023-02-26T11:04:58;18.23;;;3.95;;
49392;SDS011;35268;42.642;23.308;2023-02-26T11:07:23;13.75;;;2.75;;
49392;SDS011;35268;42.642;23.308;2023-02-26T11:09:55;20.90;;;3.50;;
49392;SDS011;35268;42.642;23.308;2023-02-26T11:12:21;15.70;;;3.30;;
49392;SDS011;35268;42.642;23.308;2023-02-26T11:14:48;22.63;;;4.10;;
49392;SDS011;35268;42.642;23.308;2023-02-26T11:17:18;18.77;;;3.67;;
49392;SDS011;35268;42.642;23.308;2023-02-26T11:20:03;20.27;;;2.97;;
49392;SDS011;35268;42.642;23.308;2023-02-26T11:22:39;18.92;;;3.17;;
49392;SDS011;35268;42.642;23.308;2023-02-26T11:25:16;18.73;;;3.80;;
49392;SDS011;35268;42.642;23.308;2023-02-26T11:30:15;20.27;;;3.33;;
49392;SDS011;35268;42.642;23.308;2023-02-26T11:32:45;11.60;;;3.25;;
49392;SDS011;35268;42.642;23.308;2023-02-26T11:35:17;17.38;;;3.65;;
49392;SDS011;35268;42.642;23.308;2023-02-26T11:37:48;13.65;;;3.08;;
49392;SDS011;35268;42.642;23.308;2023-02-26T11:40:18;15.27;;;3.30;;
49392;SDS011;35268;42.642;23.308;2023-02-26T11:42:58;14.98;;;4.45;;
49392;SDS011;35268;42.642;23.308;2023-02-26T11:45:27;12.82;;;3.95;;
49392;SDS011;35268;42.642;23.308;2023-02-26T11:48:00;23.15;;;5.80;;
49392;SDS011;35268;42.642;23.308;2023-02-26T11:50:29;22.15;;;4.43;;
49392;SDS011;35268;42.642;23.308;2023-02-26T11:53:14;18.35;;;3.85;;
49392;SDS011;35268;42.642;23.308;2023-02-26T11:55:50;17.25;;;3.38;;
49392;SDS011;35268;42.642;23.308;2023-02-26T11:58:19;19.77;;;3.80;;
49392;SDS011;35268;42.642;23.308;2023-02-26T12:00:46;21.25;;;4.20;;
49392;SDS011;35268;42.642;23.308;2023-02-26T12:03:18;19.45;;;4.13;;
49392;SDS011;35268;42.642;23.308;2023-02-26T12:05:46;22.13;;;3.83;;
49392;SDS011;35268;42.642;23.308;2023-02-26T12:08:19;19.52;;;4.88;;
49392;SDS011;35268;42.642;23.308;2023-02-26T12:20:19;15.75;;;3.85;;
49392;SDS011;35268;42.642;23.308;2023-02-26T12:36:42;15.68;;;3.78;;
49392;SDS011;35268;42.642;23.308;2023-02-26T12:39:31;22.13;;;5.82;;
49392;SDS011;35268;42.642;23.308;2023-02-26T12:44:53;20.75;;;4.20;;
49392;SDS011;35268;42.642;23.308;2023-02-26T12:58:44;20.77;;;4.93;;
49392;SDS011;35268;42.642;23.308;2023-02-26T13:06:54;17.17;;;4.22;;
49392;SDS011;35268;42.642;23.308;2023-02-26T13:15:13;21.52;;;5.47;;
49392;SDS011;35268;42.642;23.308;2023-02-26T13:17:52;18.80;;;4.93;;
49392;SDS011;35268;42.642;23.308;2023-02-26T13:20:39;22.80;;;6.05;;
49392;SDS011;35268;42.642;23.308;2023-02-26T13:23:21;24.40;;;5.50;;
49392;SDS011;35268;42.642;23.308;2023-02-26T13:25:52;20.75;;;4.57;;
49392;SDS011;35268;42.642;23.308;2023-02-26T13:30:48;27.85;;;4.85;;
49392;SDS011;35268;42.642;23.308;2023-02-26T13:33:17;24.42;;;4.68;;
49392;SDS011;35268;42.642;23.308;2023-02-26T13:35:47;34.13;;;7.88;;
49392;SDS011;35268;42.642;23.308;2023-02-26T13:52:23;32.00;;;4.65;;
49392;SDS011;35268;42.642;23.308;2023-02-26T13:54:51;13.48;;;3.50;;
49392;SDS011;35268;42.642;23.308;2023-02-26T14:00:26;23.45;;;4.88;;
49392;SDS011;35268;42.642;23.308;2023-02-26T14:03:11;25.23;;;4.53;;
49392;SDS011;35268;42.642;23.308;2023-02-26T14:05:54;25.08;;;5.35;;
49392;SDS011;35268;42.642;23.308;2023-02-26T14:11:23;20.95;;;4.45;;
49392;SDS011;35268;42.642;23.308;2023-02-26T14:14:05;25.05;;;6.95;;
49392;SDS011;35268;42.642;23.308;2023-02-26T14:16:41;35.90;;;5.35;;
49392;SDS011;35268;42.642;23.308;2023-02-26T14:19:19;25.35;;;5.13;;
49392;SDS011;35268;42.642;23.308;2023-02-26T14:21:54;40.00;;;6.15;;
49392;SDS011;35268;42.642;23.308;2023-02-26T14:30:04;25.40;;;6.07;;
49392;SDS011;35268;42.642;23.308;2023-02-26T14:35:25;30.95;;;6.43;;
49392;SDS011;35268;42.642;23.308;2023-02-26T14:37:58;37.63;;;5.30;;
49392;SDS011;35268;42.642;23.308;2023-02-26T14:40:35;30.55;;;5.70;;
49392;SDS011;35268;42.642;23.308;2023-02-26T14:43:32;25.70;;;6.03;;
49392;SDS011;35268;42.642;23.308;2023-02-26T14:46:01;21.58;;;5.70;;
49392;SDS011;35268;42.642;23.308;2023-02-26T14:48:28;33.95;;;7.28;;
49392;SDS011;35268;42.642;23.308;2023-02-26T14:59:06;28.05;;;6.10;;
49392;SDS011;35268;42.642;23.308;2023-02-26T15:08:17;35.55;;;6.75;;
49392;SDS011;35268;42.642;23.308;2023-02-26T15:15:59;27.25;;;5.38;;
49392;SDS011;35268;42.642;23.308;2023-02-26T15:26:03;34.38;;;5.72;;
49392;SDS011;35268;42.642;23.308;2023-02-26T15:28:35;27.42;;;5.05;;
49392;SDS011;35268;42.642;23.308;2023-02-26T15:31:10;27.38;;;4.82;;
49392;SDS011;35268;42.642;23.308;2023-02-26T15:33:36;33.80;;;5.20;;
49392;SDS011;35268;42.642;23.308;2023-02-26T15:36:10;31.65;;;6.68;;
49392;SDS011;35268;42.642;23.308;2023-02-26T15:38:39;29.75;;;5.95;;
49392;SDS011;35268;42.642;23.308;2023-02-26T15:41:10;42.85;;;6.78;;
49392;SDS011;35268;42.642;23.308;2023-02-26T15:44:23;27.73;;;6.57;;
49392;SDS011;35268;42.642;23.308;2023-02-26T15:46:30;37.25;;;6.28;;
49392;SDS011;35268;42.642;23.308;2023-02-26T15:49:01;20.95;;;5.85;;
49392;SDS011;35268;42.642;23.308;2023-02-26T15:51:31;39.95;;;5.88;;
49392;SDS011;35268;42.642;23.308;2023-02-26T15:53:57;32.17;;;7.68;;
49392;SDS011;35268;42.642;23.308;2023-02-26T15:56:28;48.72;;;7.38;;
49392;SDS011;35268;42.642;23.308;2023-02-26T15:59:09;36.75;;;6.20;;
49392;SDS011;35268;42.642;23.308;2023-02-26T16:01:38;49.53;;;8.05;;
49392;SDS011;35268;42.642;23.308;2023-02-26T16:04:06;47.88;;;6.70;;
49392;SDS011;35268;42.642;23.308;2023-02-26T16:06:39;34.58;;;6.60;;
49392;SDS011;35268;42.642;23.308;2023-02-26T16:09:07;34.15;;;6.97;;
49392;SDS011;35268;42.642;23.308;2023-02-26T16:11:39;34.42;;;6.63;;
49392;SDS011;35268;42.642;23.308;2023-02-26T16:14:07;27.25;;;6.53;;
49392;SDS011;35268;42.642;23.308;2023-02-26T16:16:45;35.83;;;6.38;;
49392;SDS011;35268;42.642;23.308;2023-02-26T16:21:40;40.72;;;6.60;;
49392;SDS011;35268;42.642;23.308;2023-02-26T16:24:06;27.17;;;6.07;;
49392;SDS011;35268;42.642;23.308;2023-02-26T16:26:38;37.50;;;7.57;;
49392;SDS011;35268;42.642;23.308;2023-02-26T16:29:12;34.15;;;7.97;;
49392;SDS011;35268;42.642;23.308;2023-02-26T16:31:44;30.60;;;6.28;;
49392;SDS011;35268;42.642;23.308;2023-02-26T16:34:31;50.05;;;7.85;;
49392;SDS011;35268;42.642;23.308;2023-02-26T16:39:54;31.98;;;6.70;;
49392;SDS011;35268;42.642;23.308;2023-02-26T16:42:32;28.80;;;6.25;;
49392;SDS011;35268;42.642;23.308;2023-02-26T16:47:43;32.42;;;7.47;;
49392;SDS011;35268;42.642;23.308;2023-02-26T16:50:19;29.25;;;5.82;;
49392;SDS011;35268;42.642;23.308;2023-02-26T16:55:28;29.40;;;6.25;;
49392;SDS011;35268;42.642;23.308;2023-02-26T16:57:58;34.25;;;6.53;;
49392;SDS011;35268;42.642;23.308;2023-02-26T17:00:27;33.78;;;5.60;;
49392;SDS011;35268;42.642;23.308;2023-02-26T17:02:55;20.40;;;5.15;;
49392;SDS011;35268;42.642;23.308;2023-02-26T17:05:29;17.48;;;5.43;;
49392;SDS011;35268;42.642;23.308;2023-02-26T17:10:47;35.38;;;6.05;;
49392;SDS011;35268;42.642;23.308;2023-02-26T17:15:41;26.83;;;5.47;;
49392;SDS011;35268;42.642;23.308;2023-02-26T17:18:09;32.55;;;7.68;;
49392;SDS011;35268;42.642;23.308;2023-02-26T17:20:37;37.80;;;5.25;;
49392;SDS011;35268;42.642;23.308;2023-02-26T17:23:04;34.28;;;6.65;;
49392;SDS011;35268;42.642;23.308;2023-02-26T17:25:37;34.63;;;6.15;;
49392;SDS011;35268;42.642;23.308;2023-02-26T17:28:07;36.75;;;6.93;;
49392;SDS011;35268;42.642;23.308;2023-02-26T17:30:39;38.45;;;5.78;;
49392;SDS011;35268;42.642;23.308;2023-02-26T17:33:04;34.17;;;6.22;;
49392;SDS011;35268;42.642;23.308;2023-02-26T17:35:31;24.45;;;7.07;;
49392;SDS011;35268;42.642;23.308;2023-02-26T17:38:00;37.38;;;6.13;;
49392;SDS011;35268;42.642;23.308;2023-02-26T17:40:27;47.38;;;6.65;;
49392;SDS011;35268;42.642;23.308;2023-02-26T17:42:55;30.75;;;5.57;;
49392;SDS011;35268;42.642;23.308;2023-02-26T17:45:22;32.45;;;5.97;;
49392;SDS011;35268;42.642;23.308;2023-02-26T17:47:47;37.35;;;6.50;;
49392;SDS011;35268;42.642;23.308;2023-02-26T17:52:50;36.78;;;8.88;;
49392;SDS011;35268;42.642;23.308;2023-02-26T17:55:16;24.13;;;5.80;;
49392;SDS011;35268;42.642;23.308;2023-02-26T17:57:41;31.20;;;5.97;;
49392;SDS011;35268;42.642;23.308;2023-02-26T18:00:08;34.17;;;6.78;;
49392;SDS011;35268;42.642;23.308;2023-02-26T18:02:38;37.73;;;6.77;;
49392;SDS011;35268;42.642;23.308;2023-02-26T18:05:04;39.58;;;8.45;;
49392;SDS011;35268;42.642;23.308;2023-02-26T18:07:30;37.55;;;7.05;;
49392;SDS011;35268;42.642;23.308;2023-02-26T18:09:55;39.53;;;8.73;;
49392;SDS011;35268;42.642;23.308;2023-02-26T18:12:21;34.35;;;7.68;;
49392;SDS011;35268;42.642;23.308;2023-02-26T18:14:47;34.25;;;7.07;;
49392;SDS011;35268;42.642;23.308;2023-02-26T18:17:13;24.58;;;7.68;;
49392;SDS011;35268;42.642;23.308;2023-02-26T18:19:42;36.33;;;7.28;;
49392;SDS011;35268;42.642;23.308;2023-02-26T18:22:17;34.60;;;8.80;;
49392;SDS011;35268;42.642;23.308;2023-02-26T18:24:44;32.25;;;8.13;;
49392;SDS011;35268;42.642;23.308;2023-02-26T18:27:12;43.38;;;8.02;;